createdAt,value
2024-02-14T00:01:12.338Z,100447.00
2024-02-14T00:11:15.639Z,100431.47
2024-02-14T00:21:19.882Z,100444.72
2024-02-14T00:31:22.816Z,100436.59
2024-02-14T00:41:30.888Z,100429.75
2024-02-14T00:51:34.513Z,100418.66
2024-02-14T01:01:38.685Z,100407.38
2024-02-14T01:11:41.509Z,100403.38
2024-02-14T01:21:49.368Z,100388.13
2024-02-14T01:31:52.375Z,100368.13
2024-02-14T01:41:56.612Z,100388.75
2024-02-14T01:52:01.715Z,100382.53
2024-02-14T02:02:08.309Z,100369.34
2024-02-14T02:12:11.336Z,100353.59
2024-02-14T02:22:15.567Z,100355.53
2024-02-14T02:32:20.099Z,100341.50
2024-02-14T02:42:23.092Z,100350.97
2024-02-14T02:52:28.135Z,100355.84
2024-02-14T03:02:30.937Z,100358.09
2024-02-14T03:12:36.763Z,100373.22
2024-02-14T03:22:40.382Z,100374.03
2024-02-14T03:32:44.642Z,100368.41
2024-02-14T03:42:47.449Z,100366.56
2024-02-14T03:52:52.101Z,100382.59
2024-02-14T04:02:54.990Z,100370.22
2024-02-14T04:12:59.447Z,100373.78
2024-02-14T04:23:02.313Z,100382.78
2024-02-14T04:33:10.418Z,100393.84
2024-02-14T04:43:15.495Z,100402.44
2024-02-14T04:53:21.026Z,100398.88
2024-02-14T05:03:25.390Z,100388.44
2024-02-14T05:13:29.602Z,100394.31
2024-02-14T05:23:32.382Z,100373.88
2024-02-14T05:33:37.045Z,100375.66
2024-02-14T05:43:40.302Z,100386.34
2024-02-14T05:53:44.429Z,100397.28
2024-02-14T06:03:47.281Z,100394.50
2024-02-14T06:13:51.446Z,100407.72
2024-02-14T06:23:54.315Z,100412.88
2024-02-14T06:33:58.660Z,100435.47
2024-02-14T06:44:04.301Z,100445.00
2024-02-14T06:54:09.087Z,100471.53
2024-02-14T07:04:11.964Z,100456.97
2024-02-14T07:14:16.136Z,100469.31
2024-02-14T07:24:19.401Z,100481.22
2024-02-14T07:34:24.107Z,100461.31
2024-02-14T07:44:27.034Z,100468.63
2024-02-14T07:54:31.252Z,100469.94
2024-02-14T08:04:34.210Z,100473.03
2024-02-14T08:14:38.729Z,100476.38
2024-02-14T08:24:41.651Z,100488.06
2024-02-14T08:34:46.240Z,100488.72
2024-02-14T08:44:49.891Z,100485.47
2024-02-14T08:54:54.120Z,100489.19
2024-02-14T09:04:56.960Z,100495.81
2024-02-14T09:15:01.480Z,100507.59
2024-02-14T09:25:05.452Z,100496.06
2024-02-14T09:35:11.332Z,100514.31
2024-02-14T09:45:17.902Z,100524.88
2024-02-14T09:55:28.534Z,100514.41
2024-02-14T10:05:32.490Z,100522.78
2024-02-14T10:15:37.864Z,100530.34
2024-02-14T10:25:40.747Z,100525.75
2024-02-14T10:35:45.291Z,100527.75
2024-02-14T10:45:48.441Z,100558.44
2024-02-14T10:55:53.994Z,100559.56
2024-02-14T11:06:02.001Z,100551.84
2024-02-14T11:16:08.632Z,100562.03
2024-02-14T11:26:17.699Z,100562.66
2024-02-14T11:36:22.745Z,100540.75
2024-02-14T11:46:25.664Z,100531.72
2024-02-14T11:56:34.654Z,100539.19
2024-02-14T12:06:39.021Z,100531.88
2024-02-14T12:16:43.596Z,100547.91
2024-02-14T12:26:46.600Z,100535.44
2024-02-14T12:36:50.866Z,100527.81
2024-02-14T12:46:53.689Z,100512.66
2024-02-14T12:56:57.958Z,100523.88
2024-02-14T13:07:01.104Z,100527.97
2024-02-14T13:17:06.101Z,100518.75
2024-02-14T13:27:09.033Z,100516.72
2024-02-14T13:37:14.311Z,100509.06
2024-02-14T13:47:20.802Z,100503.75
2024-02-14T13:57:24.949Z,100488.28
2024-02-14T14:07:27.767Z,100487.22
2024-02-14T14:17:32.055Z,100500.88
2024-02-14T14:27:35.001Z,100491.00
2024-02-14T14:37:39.440Z,100504.28
2024-02-14T14:47:42.421Z,100499.97
2024-02-14T14:57:46.612Z,100502.41
2024-02-14T15:07:49.425Z,100497.78
2024-02-14T15:17:53.741Z,100489.81
2024-02-14T15:27:56.670Z,100460.63
2024-02-14T15:38:01.864Z,100470.81
2024-02-14T15:48:05.157Z,100487.69
2024-02-14T15:58:09.459Z,100494.34
2024-02-14T16:08:17.250Z,100487.59
2024-02-14T16:18:21.494Z,100482.06
2024-02-14T16:28:24.356Z,100481.41
2024-02-14T16:38:28.601Z,100468.59
2024-02-14T16:48:32.616Z,100483.06
2024-02-14T16:58:37.350Z,100479.66
2024-02-14T17:08:44.088Z,100484.78
2024-02-14T17:18:48.412Z,100499.47
2024-02-14T17:28:51.213Z,100493.16
2024-02-14T17:38:56.980Z,100488.44
2024-02-14T17:49:00.105Z,100492.69
2024-02-14T17:59:04.398Z,100502.75
2024-02-14T18:09:08.454Z,100497.47
2024-02-14T18:19:12.793Z,100508.53
2024-02-14T18:29:15.955Z,100495.41
2024-02-14T18:39:20.418Z,100502.25
2024-02-14T18:49:24.845Z,100502.91
2024-02-14T18:59:29.144Z,100504.31
2024-02-14T19:09:32.976Z,100507.69
2024-02-14T19:19:37.874Z,100505.13
2024-02-14T19:29:40.918Z,100498.16
2024-02-14T19:39:45.080Z,100492.72
2024-02-14T19:49:48.065Z,100489.66
2024-02-14T19:59:52.253Z,100511.47
2024-02-14T20:09:55.180Z,100508.22
2024-02-14T20:20:00.720Z,100511.13
2024-02-14T20:30:07.501Z,100510.25
2024-02-14T20:40:14.801Z,100518.44
2024-02-14T20:50:17.848Z,100522.19
2024-02-14T21:00:22.824Z,100519.97
2024-02-14T21:10:28.667Z,100530.16
2024-02-14T21:20:33.022Z,100542.09
2024-02-14T21:30:35.878Z,100524.91
2024-02-14T21:40:40.059Z,100520.66
2024-02-14T21:50:43.203Z,100527.13
2024-02-14T22:00:48.003Z,100531.88
2024-02-14T22:10:51.036Z,100525.06
2024-02-14T22:20:55.377Z,100526.94
2024-02-14T22:30:58.210Z,100524.41
2024-02-14T22:41:02.415Z,100526.63
2024-02-14T22:51:05.797Z,100510.41
2024-02-14T23:01:10.017Z,100506.88
2024-02-14T23:11:12.953Z,100512.81
2024-02-14T23:21:19.085Z,100502.22
2024-02-14T23:31:24.626Z,100492.38
2024-02-14T23:41:28.848Z,100490.50
2024-02-14T23:51:32.116Z,100489.97
